sensor_id;sensor_type;location;lat;lon;timestamp;pressure;altitude;pressure_sealevel;temperature;humidity
16030;BME280;34770;49.272;11.070;2023-08-20T00:02:12;98042.38;;;22.67;82.51
16030;BME280;34770;49.272;11.070;2023-08-20T00:04:39;98020.50;;;22.65;82.21
16030;BME280;34770;49.272;11.070;2023-08-20T00:07:05;98026.13;;;22.57;82.04
16030;BME280;34770;49.272;11.070;2023-08-20T00:09:30;98036.97;;;22.52;82.33
16030;BME280;34770;49.272;11.070;2023-08-20T00:11:56;98011.22;;;22.45;82.22
16030;BME280;34770;49.272;11.070;2023-08-20T00:17:24;98034.19;;;22.45;82.48
16030;BME280;34770;49.272;11.070;2023-08-20T00:19:53;98035.88;;;22.46;82.61
16030;BME280;34770;49.272;11.070;2023-08-20T00:22:21;98034.97;;;22.33;82.40
16030;BME280;34770;49.272;11.070;2023-08-20T00:24:47;98034.50;;;22.23;83.15
16030;BME280;34770;49.272;11.070;2023-08-20T00:27:12;98032.38;;;22.25;83.56
16030;BME280;34770;49.272;11.070;2023-08-20T00:29:38;98034.97;;;22.33;83.61
16030;BME280;34770;49.272;11.070;2023-08-20T00:32:03;98030.34;;;22.46;83.37
16030;BME280;34770;49.272;11.070;2023-08-20T00:34:29;98041.84;;;22.50;82.77
16030;BME280;34770;49.272;11.070;2023-08-20T00:36:54;98040.94;;;22.43;82.24
16030;BME280;34770;49.272;11.070;2023-08-20T00:39:19;98039.31;;;22.55;82.31
16030;BME280;34770;49.272;11.070;2023-08-20T00:41:45;98031.19;;;22.47;81.59
16030;BME280;34770;49.272;11.070;2023-08-20T00:44:10;98032.47;;;22.44;82.00
16030;BME280;34770;49.272;11.070;2023-08-20T00:46:36;98025.63;;;22.34;82.09
16030;BME280;34770;49.272;11.070;2023-08-20T00:49:01;98031.97;;;22.34;82.68
16030;BME280;34770;49.272;11.070;2023-08-20T00:51:27;98027.31;;;22.28;82.89
16030;BME280;34770;49.272;11.070;2023-08-20T00:53:54;98035.81;;;22.33;82.66
16030;BME280;34770;49.272;11.070;2023-08-20T00:56:19;98024.38;;;22.36;82.40
16030;BME280;34770;49.272;11.070;2023-08-20T00:58:45;98029.25;;;22.41;82.49
16030;BME280;34770;49.272;11.070;2023-08-20T01:01:10;98040.72;;;22.38;82.53
16030;BME280;34770;49.272;11.070;2023-08-20T01:03:35;98038.34;;;22.28;82.99
16030;BME280;34770;49.272;11.070;2023-08-20T01:09:17;98028.69;;;22.11;83.66
16030;BME280;34770;49.272;11.070;2023-08-20T01:11:51;98043.34;;;22.12;83.99
16030;BME280;34770;49.272;11.070;2023-08-20T01:14:17;98035.00;;;22.05;83.83
16030;BME280;34770;49.272;11.070;2023-08-20T01:16:45;98020.97;;;22.00;83.97
16030;BME280;34770;49.272;11.070;2023-08-20T01:19:17;98038.41;;;22.07;83.97
16030;BME280;34770;49.272;11.070;2023-08-20T01:25:30;98039.09;;;22.16;82.95
16030;BME280;34770;49.272;11.070;2023-08-20T01:30:19;98034.31;;;21.97;83.55
16030;BME280;34770;49.272;11.070;2023-08-20T01:32:48;98043.63;;;21.89;83.56
16030;BME280;34770;49.272;11.070;2023-08-20T01:35:16;98050.22;;;21.67;85.09
16030;BME280;34770;49.272;11.070;2023-08-20T01:37:42;98055.50;;;21.68;85.45
16030;BME280;34770;49.272;11.070;2023-08-20T01:40:08;98058.28;;;21.68;85.06
16030;BME280;34770;49.272;11.070;2023-08-20T01:42:36;98048.28;;;21.67;85.05
16030;BME280;34770;49.272;11.070;2023-08-20T01:45:01;98055.31;;;21.70;84.65
16030;BME280;34770;49.272;11.070;2023-08-20T01:47:27;98062.53;;;21.71;84.71
16030;BME280;34770;49.272;11.070;2023-08-20T01:49:52;98057.38;;;21.61;85.03
16030;BME280;34770;49.272;11.070;2023-08-20T01:52:17;98063.53;;;21.63;84.88
16030;BME280;34770;49.272;11.070;2023-08-20T01:54:43;98072.69;;;21.64;84.64
16030;BME280;34770;49.272;11.070;2023-08-20T01:57:08;98070.16;;;21.69;84.59
16030;BME280;34770;49.272;11.070;2023-08-20T01:59:34;98071.06;;;21.76;84.33
16030;BME280;34770;49.272;11.070;2023-08-20T02:01:59;98060.03;;;21.76;83.88
16030;BME280;34770;49.272;11.070;2023-08-20T02:04:24;98072.16;;;21.81;83.26
16030;BME280;34770;49.272;11.070;2023-08-20T02:06:49;98066.41;;;21.76;82.94
16030;BME280;34770;49.272;11.070;2023-08-20T02:09:15;98071.28;;;21.74;83.25
16030;BME280;34770;49.272;11.070;2023-08-20T02:11:41;98052.34;;;21.71;82.85
16030;BME280;34770;49.272;11.070;2023-08-20T02:14:07;98071.28;;;21.74;82.67
16030;BME280;34770;49.272;11.070;2023-08-20T02:16:32;98074.69;;;21.76;82.80
16030;BME280;34770;49.272;11.070;2023-08-20T02:18:57;98072.28;;;21.67;82.85
16030;BME280;34770;49.272;11.070;2023-08-20T02:21:23;98073.88;;;21.55;83.38
16030;BME280;34770;49.272;11.070;2023-08-20T02:23:48;98075.44;;;21.43;84.09
16030;BME280;34770;49.272;11.070;2023-08-20T02:26:13;98055.88;;;21.37;84.48
16030;BME280;34770;49.272;11.070;2023-08-20T02:28:40;98075.75;;;21.54;84.03
16030;BME280;34770;49.272;11.070;2023-08-20T02:31:05;98064.53;;;21.56;83.39
16030;BME280;34770;49.272;11.070;2023-08-20T02:33:30;98052.91;;;21.39;83.10
16030;BME280;34770;49.272;11.070;2023-08-20T02:36:01;98071.00;;;21.42;83.56
16030;BME280;34770;49.272;11.070;2023-08-20T02:38:27;98071.09;;;21.33;84.15
16030;BME280;34770;49.272;11.070;2023-08-20T02:40:52;98076.56;;;21.27;84.59
16030;BME280;34770;49.272;11.070;2023-08-20T02:43:18;98065.50;;;21.06;84.89
16030;BME280;34770;49.272;11.070;2023-08-20T02:45:43;98076.38;;;21.07;85.58
16030;BME280;34770;49.272;11.070;2023-08-20T02:48:09;98078.59;;;21.18;85.55
16030;BME280;34770;49.272;11.070;2023-08-20T02:50:35;98077.66;;;21.11;84.88
16030;BME280;34770;49.272;11.070;2023-08-20T02:53:00;98071.00;;;21.06;84.78
16030;BME280;34770;49.272;11.070;2023-08-20T02:55:25;98080.03;;;21.14;84.89
16030;BME280;34770;49.272;11.070;2023-08-20T02:57:50;98080.84;;;21.29;84.55
16030;BME280;34770;49.272;11.070;2023-08-20T03:00:16;98080.38;;;21.26;84.08
16030;BME280;34770;49.272;11.070;2023-08-20T03:02:41;98086.09;;;21.24;84.13
16030;BME280;34770;49.272;11.070;2023-08-20T03:05:08;98081.00;;;21.28;83.68
16030;BME280;34770;49.272;11.070;2023-08-20T03:07:34;98077.88;;;21.31;83.45
16030;BME280;34770;49.272;11.070;2023-08-20T03:09:59;98072.31;;;21.24;83.46
16030;BME280;34770;49.272;11.070;2023-08-20T03:12:25;98065.06;;;21.23;83.58
16030;BME280;34770;49.272;11.070;2023-08-20T03:14:50;98068.47;;;21.25;83.49
16030;BME280;34770;49.272;11.070;2023-08-20T03:17:15;98070.47;;;21.10;83.79
16030;BME280;34770;49.272;11.070;2023-08-20T03:19:56;98073.31;;;21.02;84.01
16030;BME280;34770;49.272;11.070;2023-08-20T03:22:23;98074.66;;;20.92;84.75
16030;BME280;34770;49.272;11.070;2023-08-20T03:24:49;98073.81;;;20.91;84.96
16030;BME280;34770;49.272;11.070;2023-08-20T03:27:15;98069.34;;;20.90;84.86
16030;BME280;34770;49.272;11.070;2023-08-20T03:29:40;98069.88;;;21.00;84.48
16030;BME280;34770;49.272;11.070;2023-08-20T03:32:06;98064.28;;;21.08;84.14
16030;BME280;34770;49.272;11.070;2023-08-20T03:34:31;98070.94;;;20.99;83.66
16030;BME280;34770;49.272;11.070;2023-08-20T03:36:56;98066.47;;;20.98;83.68
16030;BME280;34770;49.272;11.070;2023-08-20T03:39:22;98076.38;;;20.93;84.26
16030;BME280;34770;49.272;11.070;2023-08-20T03:41:47;98074.75;;;20.98;84.05
16030;BME280;34770;49.272;11.070;2023-08-20T03:44:12;98080.50;;;21.03;83.24
16030;BME280;34770;49.272;11.070;2023-08-20T03:46:37;98072.47;;;21.02;82.79
16030;BME280;34770;49.272;11.070;2023-08-20T03:49:03;98082.34;;;20.96;83.55
16030;BME280;34770;49.272;11.070;2023-08-20T03:51:28;98074.75;;;20.98;83.21
16030;BME280;34770;49.272;11.070;2023-08-20T03:53:53;98081.97;;;20.99;83.30
16030;BME280;34770;49.272;11.070;2023-08-20T03:56:19;98082.16;;;20.98;83.22
16030;BME280;34770;49.272;11.070;2023-08-20T03:58:45;98071.34;;;20.96;82.62
16030;BME280;34770;49.272;11.070;2023-08-20T04:01:10;98076.63;;;20.98;83.11
16030;BME280;34770;49.272;11.070;2023-08-20T04:03:35;98086.78;;;20.97;82.92
16030;BME280;34770;49.272;11.070;2023-08-20T04:06:01;98083.78;;;20.92;83.01
16030;BME280;34770;49.272;11.070;2023-08-20T04:08:26;98084.13;;;20.68;83.66
16030;BME280;34770;49.272;11.070;2023-08-20T04:10:52;98079.50;;;20.54;84.84
16030;BME280;34770;49.272;11.070;2023-08-20T04:13:17;98088.03;;;20.59;84.94
16030;BME280;34770;49.272;11.070;2023-08-20T04:15:43;98091.91;;;20.64;84.54
16030;BME280;34770;49.272;11.070;2023-08-20T04:18:09;98086.69;;;20.55;85.01
16030;BME280;34770;49.272;11.070;2023-08-20T04:20:34;98092.03;;;20.42;85.29
16030;BME280;34770;49.272;11.070;2023-08-20T04:22:59;98093.16;;;20.47;86.04
16030;BME280;34770;49.272;11.070;2023-08-20T04:25:25;98101.44;;;20.62;85.69
16030;BME280;34770;49.272;11.070;2023-08-20T04:27:50;98102.84;;;20.58;85.21
16030;BME280;34770;49.272;11.070;2023-08-20T04:30:16;98095.16;;;20.53;85.07
16030;BME280;34770;49.272;11.070;2023-08-20T04:32:41;98095.25;;;20.60;85.36
16030;BME280;34770;49.272;11.070;2023-08-20T04:35:06;98094.38;;;20.74;84.90
16030;BME280;34770;49.272;11.070;2023-08-20T04:37:32;98096.75;;;20.77;84.17
16030;BME280;34770;49.272;11.070;2023-08-20T04:39:57;98092.94;;;20.78;83.90
16030;BME280;34770;49.272;11.070;2023-08-20T04:42:22;98093.78;;;20.78;83.59
16030;BME280;34770;49.272;11.070;2023-08-20T04:44:48;98092.38;;;20.83;83.68
16030;BME280;34770;49.272;11.070;2023-08-20T04:47:13;98093.28;;;20.90;83.30
16030;BME280;34770;49.272;11.070;2023-08-20T04:49:39;98099.53;;;20.98;83.08
16030;BME280;34770;49.272;11.070;2023-08-20T04:52:05;98099.16;;;21.01;83.07
16030;BME280;34770;49.272;11.070;2023-08-20T04:54:30;98103.94;;;21.07;82.56
16030;BME280;34770;49.272;11.070;2023-08-20T04:56:55;98094.13;;;21.05;82.49
16030;BME280;34770;49.272;11.070;2023-08-20T04:59:21;98109.09;;;21.17;82.16
16030;BME280;34770;49.272;11.070;2023-08-20T05:01:46;98107.47;;;21.22;82.01
16030;BME280;34770;49.272;11.070;2023-08-20T05:04:11;98105.19;;;21.26;81.74
16030;BME280;34770;49.272;11.070;2023-08-20T05:06:37;98099.91;;;21.31;81.36
16030;BME280;34770;49.272;11.070;2023-08-20T05:09:03;98095.75;;;21.35;80.69
16030;BME280;34770;49.272;11.070;2023-08-20T05:11:28;98117.06;;;21.48;80.63
16030;BME280;34770;49.272;11.070;2023-08-20T05:13:56;98121.44;;;21.42;80.69
16030;BME280;34770;49.272;11.070;2023-08-20T05:16:22;98114.00;;;21.36;81.44
16030;BME280;34770;49.272;11.070;2023-08-20T05:21:13;98116.75;;;21.57;80.87
16030;BME280;34770;49.272;11.070;2023-08-20T05:23:39;98115.03;;;21.56;80.66
16030;BME280;34770;49.272;11.070;2023-08-20T05:26:06;98128.16;;;21.75;80.45
16030;BME280;34770;49.272;11.070;2023-08-20T05:28:32;98127.81;;;21.85;80.32
16030;BME280;34770;49.272;11.070;2023-08-20T05:30:58;98119.47;;;21.78;79.97
16030;BME280;34770;49.272;11.070;2023-08-20T05:33:24;98124.88;;;21.86;80.46
16030;BME280;34770;49.272;11.070;2023-08-20T05:35:49;98129.50;;;22.07;79.94
16030;BME280;34770;49.272;11.070;2023-08-20T05:38:15;98136.81;;;22.21;79.55
16030;BME280;34770;49.272;11.070;2023-08-20T05:40:41;98136.09;;;22.34;79.29
16030;BME280;34770;49.272;11.070;2023-08-20T05:43:06;98138.91;;;22.47;79.46
16030;BME280;34770;49.272;11.070;2023-08-20T05:45:32;98125.16;;;22.53;79.12
16030;BME280;34770;49.272;11.070;2023-08-20T05:47:57;98131.81;;;22.66;78.44
16030;BME280;34770;49.272;11.070;2023-08-20T05:50:22;98132.09;;;22.77;78.13
16030;BME280;34770;49.272;11.070;2023-08-20T05:52:48;98136.81;;;22.83;78.11
16030;BME280;34770;49.272;11.070;2023-08-20T05:55:14;98135.59;;;22.92;77.82
16030;BME280;34770;49.272;11.070;2023-08-20T05:57:41;98137.75;;;23.03;77.19
16030;BME280;34770;49.272;11.070;2023-08-20T06:00:08;98141.19;;;23.12;76.75
16030;BME280;34770;49.272;11.070;2023-08-20T06:02:34;98140.38;;;23.25;76.17
16030;BME280;34770;49.272;11.070;2023-08-20T06:04:59;98141.47;;;23.37;75.52
16030;BME280;34770;49.272;11.070;2023-08-20T06:07:25;98138.78;;;23.43;75.38
16030;BME280;34770;49.272;11.070;2023-08-20T06:09:50;98141.34;;;23.58;75.09
16030;BME280;34770;49.272;11.070;2023-08-20T06:12:18;98136.25;;;23.61;75.01
16030;BME280;34770;49.272;11.070;2023-08-20T06:14:44;98135.28;;;23.28;75.46
16030;BME280;34770;49.272;11.070;2023-08-20T06:17:10;98132.50;;;23.15;75.66
16030;BME280;34770;49.272;11.070;2023-08-20T06:19:35;98141.13;;;23.46;75.38
16030;BME280;34770;49.272;11.070;2023-08-20T06:22:01;98136.69;;;23.65;74.37
16030;BME280;34770;49.272;11.070;2023-08-20T06:24:26;98135.38;;;23.61;73.89
16030;BME280;34770;49.272;11.070;2023-08-20T06:26:52;98141.84;;;23.94;73.85
16030;BME280;34770;49.272;11.070;2023-08-20T06:29:17;98127.59;;;24.10;73.26
16030;BME280;34770;49.272;11.070;2023-08-20T06:31:43;98129.06;;;24.33;72.57
16030;BME280;34770;49.272;11.070;2023-08-20T06:34:08;98121.41;;;24.15;72.51
16030;BME280;34770;49.272;11.070;2023-08-20T06:36:33;98123.72;;;24.31;72.77
16030;BME280;34770;49.272;11.070;2023-08-20T06:38:59;98112.16;;;24.54;71.98
16030;BME280;34770;49.272;11.070;2023-08-20T06:41:24;98114.69;;;24.68;71.03
16030;BME280;34770;49.272;11.070;2023-08-20T06:43:49;98126.38;;;24.90;70.62
16030;BME280;34770;49.272;11.070;2023-08-20T06:46:15;98117.25;;;24.70;70.02
16030;BME280;34770;49.272;11.070;2023-08-20T06:48:40;98130.00;;;24.91;70.19
16030;BME280;34770;49.272;11.070;2023-08-20T06:51:15;98121.25;;;24.87;68.61
16030;BME280;34770;49.272;11.070;2023-08-20T06:53:43;98114.44;;;24.76;69.52
16030;BME280;34770;49.272;11.070;2023-08-20T06:56:09;98129.09;;;25.03;69.61
16030;BME280;34770;49.272;11.070;2023-08-20T06:58:37;98125.66;;;25.08;67.67
16030;BME280;34770;49.272;11.070;2023-08-20T07:01:02;98131.38;;;25.19;67.50
16030;BME280;34770;49.272;11.070;2023-08-20T07:03:38;98130.41;;;25.38;66.88
16030;BME280;34770;49.272;11.070;2023-08-20T07:06:03;98132.03;;;25.59;65.32
16030;BME280;34770;49.272;11.070;2023-08-20T07:08:29;98137.09;;;25.69;65.04
16030;BME280;34770;49.272;11.070;2023-08-20T07:10:54;98142.75;;;25.49;64.94
16030;BME280;34770;49.272;11.070;2023-08-20T07:13:20;98144.03;;;25.84;64.70
16030;BME280;34770;49.272;11.070;2023-08-20T07:15:45;98157.81;;;25.98;64.80
16030;BME280;34770;49.272;11.070;2023-08-20T07:18:11;98137.50;;;26.28;64.01
16030;BME280;34770;49.272;11.070;2023-08-20T07:20:38;98157.59;;;26.55;63.75
16030;BME280;34770;49.272;11.070;2023-08-20T07:23:04;98156.81;;;26.66;62.83
16030;BME280;34770;49.272;11.070;2023-08-20T07:25:29;98157.25;;;26.88;61.34
16030;BME280;34770;49.272;11.070;2023-08-20T07:27:55;98160.72;;;27.01;61.22
16030;BME280;34770;49.272;11.070;2023-08-20T07:30:27;98148.97;;;27.18;61.06
16030;BME280;34770;49.272;11.070;2023-08-20T07:32:52;98138.75;;;27.30;59.92
16030;BME280;34770;49.272;11.070;2023-08-20T07:35:20;98162.78;;;27.60;58.93
16030;BME280;34770;49.272;11.070;2023-08-20T07:37:45;98166.22;;;27.74;59.04
16030;BME280;34770;49.272;11.070;2023-08-20T07:40:12;98170.41;;;27.95;58.81
16030;BME280;34770;49.272;11.070;2023-08-20T07:42:39;98161.28;;;27.76;56.33
16030;BME280;34770;49.272;11.070;2023-08-20T07:45:05;98162.44;;;27.98;55.99
16030;BME280;34770;49.272;11.070;2023-08-20T07:47:30;98168.38;;;28.02;54.44
16030;BME280;34770;49.272;11.070;2023-08-20T07:49:56;98159.50;;;27.93;55.02
16030;BME280;34770;49.272;11.070;2023-08-20T07:52:21;98166.16;;;27.62;55.82
16030;BME280;34770;49.272;11.070;2023-08-20T07:54:46;98138.06;;;27.94;54.44
16030;BME280;34770;49.272;11.070;2023-08-20T07:57:12;98174.78;;;28.02;55.78
16030;BME280;34770;49.272;11.070;2023-08-20T07:59:37;98163.13;;;28.12;54.96
16030;BME280;34770;49.272;11.070;2023-08-20T08:02:03;98158.50;;;28.06;54.94
16030;BME280;34770;49.272;11.070;2023-08-20T08:07:39;98167.06;;;28.69;53.76
16030;BME280;34770;49.272;11.070;2023-08-20T08:10:05;98169.03;;;28.68;52.89
16030;BME280;34770;49.272;11.070;2023-08-20T08:12:30;98161.38;;;28.87;52.74
16030;BME280;34770;49.272;11.070;2023-08-20T08:14:56;98166.69;;;29.23;51.67
16030;BME280;34770;49.272;11.070;2023-08-20T08:17:21;98172.13;;;29.42;50.25
16030;BME280;34770;49.272;11.070;2023-08-20T08:19:46;98171.06;;;28.96;50.24
16030;BME280;34770;49.272;11.070;2023-08-20T08:22:12;98167.94;;;29.56;50.20
16030;BME280;34770;49.272;11.070;2023-08-20T08:24:37;98171.91;;;30.00;48.99
16030;BME280;34770;49.272;11.070;2023-08-20T08:27:02;98175.16;;;30.25;49.33
16030;BME280;34770;49.272;11.070;2023-08-20T08:29:28;98168.63;;;30.36;48.12
16030;BME280;34770;49.272;11.070;2023-08-20T08:31:53;98172.53;;;29.90;51.75
16030;BME280;34770;49.272;11.070;2023-08-20T08:34:18;98150.75;;;30.20;49.24
16030;BME280;34770;49.272;11.070;2023-08-20T08:36:44;98162.38;;;30.79;48.50
16030;BME280;34770;49.272;11.070;2023-08-20T08:39:12;98165.28;;;30.67;46.40
16030;BME280;34770;49.272;11.070;2023-08-20T08:41:38;98165.66;;;31.09;47.97
16030;BME280;34770;49.272;11.070;2023-08-20T08:44:06;98164.97;;;31.02;45.54
16030;BME280;34770;49.272;11.070;2023-08-20T08:46:35;98157.19;;;30.87;45.90
16030;BME280;34770;49.272;11.070;2023-08-20T08:49:00;98167.03;;;30.90;46.36
16030;BME280;34770;49.272;11.070;2023-08-20T08:51:26;98161.47;;;30.57;45.18
16030;BME280;34770;49.272;11.070;2023-08-20T08:53:53;98171.63;;;30.63;47.47
16030;BME280;34770;49.272;11.070;2023-08-20T08:56:20;98172.44;;;30.80;47.42
16030;BME280;34770;49.272;11.070;2023-08-20T08:58:45;98175.53;;;30.95;46.30
16030;BME280;34770;49.272;11.070;2023-08-20T09:01:11;98154.59;;;30.64;45.42
16030;BME280;34770;49.272;11.070;2023-08-20T09:03:36;98158.34;;;31.08;44.73
16030;BME280;34770;49.272;11.070;2023-08-20T09:06:02;98187.09;;;31.42;45.90
16030;BME280;34770;49.272;11.070;2023-08-20T09:08:32;98177.22;;;31.34;44.92
16030;BME280;34770;49.272;11.070;2023-08-20T09:11:00;98180.53;;;30.93;44.10
16030;BME280;34770;49.272;11.070;2023-08-20T09:13:36;98181.25;;;31.43;45.90
16030;BME280;34770;49.272;11.070;2023-08-20T09:16:09;98180.00;;;31.34;45.21
16030;BME280;34770;49.272;11.070;2023-08-20T09:18:39;98168.75;;;31.73;44.36
16030;BME280;34770;49.272;11.070;2023-08-20T09:21:09;98166.41;;;32.13;42.19
16030;BME280;34770;49.272;11.070;2023-08-20T09:23:35;98162.72;;;32.66;43.75
16030;BME280;34770;49.272;11.070;2023-08-20T09:26:04;98180.78;;;32.48;42.51
16030;BME280;34770;49.272;11.070;2023-08-20T09:28:44;98161.00;;;33.02;43.25
16030;BME280;34770;49.272;11.070;2023-08-20T09:31:09;98175.31;;;33.42;42.32
16030;BME280;34770;49.272;11.070;2023-08-20T09:33:35;98190.13;;;33.79;40.72
16030;BME280;34770;49.272;11.070;2023-08-20T09:36:02;98173.53;;;33.83;39.58
16030;BME280;34770;49.272;11.070;2023-08-20T09:38:28;98182.06;;;34.08;39.18
16030;BME280;34770;49.272;11.070;2023-08-20T09:40:54;98172.34;;;33.64;40.58
16030;BME280;34770;49.272;11.070;2023-08-20T09:43:24;98167.66;;;33.90;39.84
16030;BME280;34770;49.272;11.070;2023-08-20T09:45:55;98170.00;;;34.13;38.00
16030;BME280;34770;49.272;11.070;2023-08-20T09:48:21;98173.28;;;33.90;38.12
16030;BME280;34770;49.272;11.070;2023-08-20T09:50:47;98180.78;;;33.69;37.63
16030;BME280;34770;49.272;11.070;2023-08-20T09:53:38;98181.47;;;33.96;37.68
16030;BME280;34770;49.272;11.070;2023-08-20T09:56:10;98171.31;;;33.33;37.08
16030;BME280;34770;49.272;11.070;2023-08-20T09:58:40;98184.88;;;32.67;38.13
16030;BME280;34770;49.272;11.070;2023-08-20T10:01:06;98160.38;;;32.26;38.28
16030;BME280;34770;49.272;11.070;2023-08-20T10:03:32;98176.78;;;32.71;38.05
16030;BME280;34770;49.272;11.070;2023-08-20T10:05:58;98167.03;;;32.79;37.59
16030;BME280;34770;49.272;11.070;2023-08-20T10:08:25;98151.25;;;32.73;39.81
16030;BME280;34770;49.272;11.070;2023-08-20T10:10:51;98172.47;;;33.37;38.51
16030;BME280;34770;49.272;11.070;2023-08-20T10:13:17;98164.19;;;33.57;36.38
16030;BME280;34770;49.272;11.070;2023-08-20T10:15:43;98164.63;;;34.11;37.17
16030;BME280;34770;49.272;11.070;2023-08-20T10:18:09;98172.25;;;34.31;36.02
16030;BME280;34770;49.272;11.070;2023-08-20T10:20:35;98173.84;;;33.92;37.56
16030;BME280;34770;49.272;11.070;2023-08-20T10:23:02;98167.47;;;34.42;36.71
16030;BME280;34770;49.272;11.070;2023-08-20T10:25:29;98177.38;;;34.64;36.30
16030;BME280;34770;49.272;11.070;2023-08-20T10:28:11;98166.97;;;34.75;36.25
16030;BME280;34770;49.272;11.070;2023-08-20T10:30:37;98175.88;;;35.37;34.18
16030;BME280;34770;49.272;11.070;2023-08-20T10:33:02;98164.16;;;34.65;35.48
16030;BME280;34770;49.272;11.070;2023-08-20T10:38:05;98168.53;;;35.46;33.94
16030;BME280;34770;49.272;11.070;2023-08-20T10:43:33;98172.88;;;35.09;34.65
16030;BME280;34770;49.272;11.070;2023-08-20T10:46:18;98166.59;;;35.32;36.00
16030;BME280;34770;49.272;11.070;2023-08-20T10:48:48;98165.91;;;35.75;35.95
16030;BME280;34770;49.272;11.070;2023-08-20T10:54:09;98161.41;;;35.69;36.35
16030;BME280;34770;49.272;11.070;2023-08-20T10:56:42;98158.72;;;35.24;36.03
16030;BME280;34770;49.272;11.070;2023-08-20T10:59:16;98156.25;;;34.52;35.32
16030;BME280;34770;49.272;11.070;2023-08-20T11:01:46;98163.28;;;34.49;39.63
16030;BME280;34770;49.272;11.070;2023-08-20T11:04:14;98161.56;;;34.48;37.01
16030;BME280;34770;49.272;11.070;2023-08-20T11:06:40;98152.56;;;35.07;35.16
16030;BME280;34770;49.272;11.070;2023-08-20T11:09:06;98156.16;;;35.32;35.55
16030;BME280;34770;49.272;11.070;2023-08-20T11:11:32;98145.25;;;34.45;35.78
16030;BME280;34770;49.272;11.070;2023-08-20T11:14:04;98152.56;;;34.97;36.78
16030;BME280;34770;49.272;11.070;2023-08-20T11:16:30;98155.81;;;35.49;35.10
16030;BME280;34770;49.272;11.070;2023-08-20T11:18:56;98156.22;;;35.91;34.10
16030;BME280;34770;49.272;11.070;2023-08-20T11:21:22;98144.34;;;35.94;34.10
16030;BME280;34770;49.272;11.070;2023-08-20T11:23:47;98156.38;;;36.59;34.35
16030;BME280;34770;49.272;11.070;2023-08-20T11:26:13;98154.03;;;36.71;34.14
16030;BME280;34770;49.272;11.070;2023-08-20T11:28:38;98146.50;;;36.56;33.38
16030;BME280;34770;49.272;11.070;2023-08-20T11:31:03;98135.44;;;36.26;34.59
16030;BME280;34770;49.272;11.070;2023-08-20T11:33:29;98144.75;;;36.22;32.96
16030;BME280;34770;49.272;11.070;2023-08-20T11:35:54;98140.06;;;36.46;33.96
16030;BME280;34770;49.272;11.070;2023-08-20T11:38:22;98148.09;;;36.68;34.28
16030;BME280;34770;49.272;11.070;2023-08-20T11:40:48;98135.28;;;36.80;33.33
16030;BME280;34770;49.272;11.070;2023-08-20T11:43:13;98149.72;;;35.91;33.73
16030;BME280;34770;49.272;11.070;2023-08-20T11:45:46;98129.34;;;36.09;34.25
16030;BME280;34770;49.272;11.070;2023-08-20T11:48:12;98139.53;;;36.00;34.99
16030;BME280;34770;49.272;11.070;2023-08-20T11:50:38;98125.13;;;35.42;33.62
16030;BME280;34770;49.272;11.070;2023-08-20T11:53:03;98127.44;;;35.25;34.40
16030;BME280;34770;49.272;11.070;2023-08-20T11:55:29;98137.03;;;35.88;33.43
16030;BME280;34770;49.272;11.070;2023-08-20T11:57:55;98130.31;;;35.79;33.80
16030;BME280;34770;49.272;11.070;2023-08-20T12:00:30;98145.50;;;35.88;34.85
16030;BME280;34770;49.272;11.070;2023-08-20T12:02:57;98134.75;;;35.36;33.59
16030;BME280;34770;49.272;11.070;2023-08-20T12:05:27;98131.97;;;35.85;32.70
16030;BME280;34770;49.272;11.070;2023-08-20T12:08:15;98135.66;;;35.17;33.48
16030;BME280;34770;49.272;11.070;2023-08-20T12:10:42;98123.69;;;35.55;33.71
16030;BME280;34770;49.272;11.070;2023-08-20T12:13:08;98127.97;;;35.96;32.34
16030;BME280;34770;49.272;11.070;2023-08-20T12:15:33;98114.44;;;36.37;32.69
16030;BME280;34770;49.272;11.070;2023-08-20T12:20:30;98127.75;;;37.52;31.95
16030;BME280;34770;49.272;11.070;2023-08-20T12:23:04;98107.84;;;36.81;32.59
16030;BME280;34770;49.272;11.070;2023-08-20T12:25:32;98103.00;;;36.86;31.70
16030;BME280;34770;49.272;11.070;2023-08-20T12:27:59;98106.31;;;37.46;29.01
16030;BME280;34770;49.272;11.070;2023-08-20T12:30:24;98113.25;;;37.77;29.39
16030;BME280;34770;49.272;11.070;2023-08-20T12:32:50;98113.88;;;37.98;28.49
16030;BME280;34770;49.272;11.070;2023-08-20T12:35:15;98096.75;;;37.84;28.65
16030;BME280;34770;49.272;11.070;2023-08-20T12:37:41;98095.72;;;37.99;28.92
16030;BME280;34770;49.272;11.070;2023-08-20T12:40:06;98096.63;;;37.94;30.42
16030;BME280;34770;49.272;11.070;2023-08-20T12:42:39;98104.25;;;37.75;28.72
16030;BME280;34770;49.272;11.070;2023-08-20T12:45:07;98106.59;;;37.68;29.56
16030;BME280;34770;49.272;11.070;2023-08-20T12:47:34;98101.34;;;37.80;28.62
16030;BME280;34770;49.272;11.070;2023-08-20T12:49:59;98097.09;;;37.11;29.03
16030;BME280;34770;49.272;11.070;2023-08-20T12:52:25;98093.38;;;37.82;28.34
16030;BME280;34770;49.272;11.070;2023-08-20T12:54:50;98101.44;;;38.12;28.01
16030;BME280;34770;49.272;11.070;2023-08-20T12:57:16;98083.06;;;38.47;27.69
16030;BME280;34770;49.272;11.070;2023-08-20T12:59:41;98091.94;;;38.22;27.80
16030;BME280;34770;49.272;11.070;2023-08-20T13:02:06;98089.13;;;38.41;28.03
16030;BME280;34770;49.272;11.070;2023-08-20T13:04:32;98071.03;;;38.69;27.64
16030;BME280;34770;49.272;11.070;2023-08-20T13:06:58;98085.09;;;38.93;26.78
16030;BME280;34770;49.272;11.070;2023-08-20T13:09:24;98075.38;;;39.39;28.10
16030;BME280;34770;49.272;11.070;2023-08-20T13:11:50;98082.06;;;39.03;27.65
16030;BME280;34770;49.272;11.070;2023-08-20T13:14:18;98077.34;;;39.12;26.68
16030;BME280;34770;49.272;11.070;2023-08-20T13:16:43;98079.16;;;39.49;26.74